Time;durP1;ratioP1;P1;durP2;ratioP2;P2;SDS_P1;SDS_P2;PMS_P1;PMS_P2;Temp;Humidity;BMP_temperature;BMP_pressure;BME280_temperature;BME280_humidity;BME280_pressure;Samples;Min_cycle;Max_cycle;Signal;HPM_P1;HPM_P2
2021/12/10 00:00:21;;;;;;;7.13;3.88;;;;;;;19.94;40.50;99847.47;5040287;28;20478;-76
2021/12/10 00:02:47;;;;;;;4.45;3.47;;;;;;;19.87;40.50;99836.88;5040719;28;20037;-75
2021/12/10 00:05:29;;;;;;;5.72;3.78;;;;;;;19.86;40.65;99839.72;5038800;28;20079;-74
2021/12/10 00:07:55;;;;;;;4.82;3.67;;;;;;;19.74;40.80;99833.41;5041060;28;20052;-74
2021/12/10 00:10:26;;;;;;;6.00;3.63;;;;;;;19.67;40.78;99822.88;5043070;28;20206;-73
2021/12/10 00:12:53;;;;;;;4.65;3.45;;;;;;;19.65;40.91;99824.91;5041190;28;20041;-75
2021/12/10 00:15:22;;;;;;;6.03;3.40;;;;;;;19.57;41.28;99817.19;5035305;28;20537;-75
2021/12/10 00:17:50;;;;;;;5.80;3.88;;;;;;;19.58;41.08;99816.16;5039946;28;20041;-75
2021/12/10 00:20:16;;;;;;;7.03;3.65;;;;;;;19.44;41.40;99809.22;5040336;28;20152;-75
2021/12/10 00:22:51;;;;;;;5.88;3.88;;;;;;;19.37;41.15;99784.63;5038561;28;20037;-74
2021/12/10 00:25:20;;;;;;;5.30;3.70;;;;;;;19.42;41.23;99803.31;5040409;28;20190;-74
2021/12/10 00:27:52;;;;;;;4.85;3.75;;;;;;;19.28;41.27;99802.47;5039141;28;20040;-74
2021/12/10 00:30:27;;;;;;;5.38;3.65;;;;;;;19.23;41.35;99783.81;5040110;28;20483;-75
2021/12/10 00:33:12;;;;;;;4.97;3.58;;;;;;;19.23;41.51;99797.00;5038782;28;20108;-74
2021/12/10 00:35:40;;;;;;;5.53;3.58;;;;;;;19.19;41.76;99798.38;5039813;28;20057;-74
2021/12/10 00:38:06;;;;;;;7.50;4.22;;;;;;;19.08;41.95;99791.88;5042296;28;20029;-74
2021/12/10 00:40:32;;;;;;;4.78;3.90;;;;;;;19.12;41.81;99792.28;5040541;28;20132;-74
2021/12/10 00:42:58;;;;;;;5.53;3.30;;;;;;;19.00;42.10;99777.03;5056630;28;20083;-75
2021/12/10 00:45:26;;;;;;;5.38;3.63;;;;;;;18.98;42.20;99771.16;5040303;28;20578;-75
2021/12/10 00:47:52;;;;;;;4.00;3.40;;;;;;;18.99;41.99;99772.78;5035065;28;20041;-74
2021/12/10 00:50:25;;;;;;;4.28;3.50;;;;;;;18.92;42.20;99768.50;5040382;28;20037;-74
2021/12/10 00:52:53;;;;;;;5.50;3.90;;;;;;;18.90;42.12;99773.16;5052785;28;20744;-75
2021/12/10 00:55:20;;;;;;;4.95;3.50;;;;;;;18.91;42.08;99775.59;5039221;28;20040;-74
2021/12/10 00:57:45;;;;;;;9.48;3.92;;;;;;;18.87;42.31;99784.13;5041343;28;20430;-73
2021/12/10 01:00:20;;;;;;;4.72;3.80;;;;;;;18.82;42.21;99771.50;5041472;28;20037;-74
2021/12/10 01:02:47;;;;;;;5.65;3.42;;;;;;;18.80;42.14;99765.63;5038630;28;20041;-74
2021/12/10 01:05:14;;;;;;;4.00;3.13;;;;;;;18.79;42.26;99768.47;5036233;28;20056;-75
2021/12/10 01:07:41;;;;;;;4.65;3.33;;;;;;;18.72;42.46;99773.72;5040774;28;20112;-74
2021/12/10 01:10:17;;;;;;;5.60;3.70;;;;;;;18.69;42.42;99771.50;5036150;28;20043;-74
2021/12/10 01:12:46;;;;;;;5.40;3.65;;;;;;;18.64;42.49;99758.88;5037147;28;20229;-77
2021/12/10 01:15:37;;;;;;;5.57;3.43;;;;;;;18.63;42.70;99766.97;5043587;28;20060;-75
2021/12/10 01:23:56;;;;;;;5.35;3.65;;;;;;;18.55;42.70;99760.03;5038463;28;20095;-75
2021/12/10 01:29:06;;;;;;;6.72;3.63;;;;;;;18.52;42.66;99749.88;5038626;28;20052;-74
2021/12/10 01:31:32;;;;;;;5.28;3.53;;;;;;;18.49;42.66;99749.44;5037832;28;20067;-74
2021/12/10 01:33:58;;;;;;;5.25;3.42;;;;;;;18.50;42.57;99740.56;5038933;28;20037;-75
2021/12/10 01:36:24;;;;;;;6.20;3.65;;;;;;;18.42;42.80;99736.25;5039958;28;20107;-75
2021/12/10 01:38:52;;;;;;;6.18;3.35;;;;;;;18.41;42.95;99724.88;5039356;28;20163;-74
2021/12/10 01:41:20;;;;;;;5.28;3.50;;;;;;;18.40;42.96;99723.28;5037612;28;20537;-74
2021/12/10 01:43:50;;;;;;;4.88;3.40;;;;;;;18.37;43.01;99717.59;5036377;28;20049;-74
2021/12/10 01:46:25;;;;;;;5.43;3.58;;;;;;;18.28;42.90;99716.09;5041016;28;20041;-73
2021/12/10 01:48:54;;;;;;;4.00;3.33;;;;;;;18.29;43.04;99715.91;5059272;28;20029;-74
2021/12/10 01:51:27;;;;;;;5.50;3.33;;;;;;;18.29;43.08;99717.72;5038726;28;20574;-74
2021/12/10 01:53:56;;;;;;;6.57;3.58;;;;;;;18.23;43.01;99711.44;5037592;28;20455;-74
2021/12/10 01:56:26;;;;;;;5.40;3.40;;;;;;;18.21;43.12;99712.63;5040049;28;20037;-74
2021/12/10 01:58:53;;;;;;;4.25;3.20;;;;;;;18.21;43.12;99708.19;5038322;28;20047;-74
2021/12/10 02:01:28;;;;;;;4.53;3.17;;;;;;;18.16;43.33;99700.06;5035676;28;20029;-75
2021/12/10 02:03:54;;;;;;;4.50;3.05;;;;;;;18.14;43.19;99701.28;5035870;28;20814;-74
2021/12/10 02:06:20;;;;;;;5.47;3.25;;;;;;;18.11;43.11;99697.19;5036285;28;20068;-75
2021/12/10 02:08:46;;;;;;;4.40;3.40;;;;;;;18.14;43.33;99699.44;5036372;28;20061;-75
2021/12/10 02:11:13;;;;;;;4.50;3.42;;;;;;;18.09;43.40;99707.91;5036582;28;20483;-74
2021/12/10 02:13:39;;;;;;;5.38;3.47;;;;;;;18.12;43.13;99696.97;5038518;28;20479;-75
2021/12/10 02:16:06;;;;;;;4.63;3.20;;;;;;;17.99;43.36;99696.13;5051417;28;20037;-74
2021/12/10 02:18:32;;;;;;;5.22;3.17;;;;;;;18.03;43.64;99702.63;5038168;28;20032;-76
2021/12/10 02:21:01;;;;;;;4.95;3.58;;;;;;;17.98;43.59;99695.31;5052198;28;20056;-74
2021/12/10 02:23:28;;;;;;;5.63;3.42;;;;;;;18.01;43.53;99699.38;5032718;28;20131;-75
2021/12/10 02:25:55;;;;;;;4.97;3.47;;;;;;;17.97;43.43;99679.69;5035443;28;20037;-75
2021/12/10 02:28:21;;;;;;;4.55;3.00;;;;;;;18.02;43.25;99693.09;5037580;28;20094;-75
2021/12/10 02:30:47;;;;;;;4.80;3.45;;;;;;;18.03;43.41;99684.19;5035969;28;20068;-75
2021/12/10 02:33:13;;;;;;;5.18;3.10;;;;;;;17.99;43.50;99681.13;5033905;28;20494;-74
2021/12/10 02:35:39;;;;;;;3.88;3.20;;;;;;;17.95;43.59;99679.88;5034501;28;20045;-75
2021/12/10 02:38:05;;;;;;;3.95;3.15;;;;;;;17.96;43.45;99670.19;5036641;28;20040;-75
2021/12/10 02:40:32;;;;;;;4.78;3.38;;;;;;;17.91;43.50;99665.47;5039521;28;20145;-74
2021/12/10 02:43:03;;;;;;;4.82;3.30;;;;;;;17.85;43.31;99654.91;5016994;28;20049;-74
2021/12/10 02:45:29;;;;;;;4.55;3.15;;;;;;;17.89;43.46;99654.31;5038171;28;20037;-75
2021/12/10 02:47:55;;;;;;;4.10;3.13;;;;;;;17.85;43.60;99650.47;5035055;28;20370;-74
2021/12/10 02:50:24;;;;;;;5.68;3.20;;;;;;;17.86;43.62;99661.81;5035637;28;20491;-76
2021/12/10 02:52:50;;;;;;;5.05;3.25;;;;;;;17.79;43.77;99643.34;5036129;28;20402;-75
2021/12/10 02:55:16;;;;;;;3.97;3.33;;;;;;;17.88;43.58;99650.06;5037431;28;20356;-75
2021/12/10 02:57:48;;;;;;;3.65;2.83;;;;;;;17.83;43.56;99652.47;5052119;28;20037;-75
2021/12/10 03:00:17;;;;;;;5.93;3.25;;;;;;;17.84;43.65;99650.66;5033915;28;20498;-75
2021/12/10 03:02:43;;;;;;;4.45;3.15;;;;;;;17.81;43.57;99649.22;5033292;28;20858;-76
2021/12/10 03:05:09;;;;;;;6.47;3.20;;;;;;;17.79;43.56;99635.44;5035477;28;20088;-76
2021/12/10 03:07:39;;;;;;;5.28;3.20;;;;;;;17.74;43.80;99641.28;5051653;28;20045;-75
2021/12/10 03:10:07;;;;;;;;;;;;;;;17.78;43.55;99644.34;5037755;28;20821;-74
2021/12/10 03:12:33;;;;;;;3.65;3.05;;;;;;;17.75;43.56;99629.72;5037847;28;19935;-75
2021/12/10 03:14:59;;;;;;;5.70;3.10;;;;;;;17.71;43.78;99635.59;5038715;28;20052;-75
2021/12/10 03:17:28;;;;;;;4.40;3.22;;;;;;;17.77;43.59;99634.81;5034805;28;20090;-74
2021/12/10 03:19:54;;;;;;;4.55;3.03;;;;;;;17.70;43.56;99629.50;5037805;28;20037;-74
2021/12/10 03:22:20;;;;;;;6.53;3.40;;;;;;;17.69;43.79;99634.97;5036612;28;20098;-74
2021/12/10 03:24:46;;;;;;;4.18;2.90;;;;;;;17.65;43.82;99638.97;5035051;28;20033;-75
2021/12/10 03:27:14;;;;;;;5.50;2.97;;;;;;;17.70;43.69;99641.88;5039823;28;20033;-75
2021/12/10 03:29:44;;;;;;;4.15;3.05;;;;;;;17.64;43.80;99638.16;5038921;28;20392;-75
2021/12/10 03:32:16;;;;;;;5.07;2.85;;;;;;;17.62;43.76;99624.38;5040937;28;20032;-75
2021/12/10 03:34:43;;;;;;;4.78;2.92;;;;;;;17.64;43.81;99632.09;5038281;28;20033;-75
2021/12/10 03:37:08;;;;;;;4.05;2.88;;;;;;;17.58;43.72;99628.38;5038670;28;20453;-76
2021/12/10 03:39:35;;;;;;;3.90;3.03;;;;;;;17.62;43.78;99632.28;5042843;28;20036;-75
2021/12/10 03:42:03;;;;;;;4.15;2.80;;;;;;;17.54;43.81;99621.91;5034386;28;20515;-75
2021/12/10 03:44:29;;;;;;;6.53;3.00;;;;;;;17.57;43.76;99618.06;5042170;28;20063;-76
2021/12/10 03:46:58;;;;;;;3.70;2.90;;;;;;;17.60;43.95;99617.69;5039957;28;20037;-74
2021/12/10 03:49:23;;;;;;;4.55;3.33;;;;;;;17.64;43.64;99608.41;5037957;28;20029;-74
2021/12/10 03:51:49;;;;;;;4.40;2.90;;;;;;;17.53;43.88;99600.03;5039540;28;20463;-75
2021/12/10 03:54:17;;;;;;;3.70;2.58;;;;;;;17.56;43.90;99590.91;5039275;28;20040;-75
2021/12/10 03:56:45;;;;;;;4.00;3.03;;;;;;;17.56;43.76;99588.28;5038550;28;20037;-75
2021/12/10 03:59:13;;;;;;;4.53;3.05;;;;;;;17.57;43.74;99587.28;5040205;28;20041;-76
2021/12/10 04:01:42;;;;;;;4.05;2.88;;;;;;;17.55;43.70;99591.94;5040062;28;20033;-74
2021/12/10 04:04:13;;;;;;;6.10;3.30;;;;;;;17.53;43.62;99584.22;5041411;28;20505;-74
2021/12/10 04:06:38;;;;;;;3.28;2.72;;;;;;;17.52;43.76;99589.69;5041639;28;20041;-74
2021/12/10 04:09:05;;;;;;;4.25;3.08;;;;;;;17.55;43.80;99586.66;5035949;28;20033;-75
2021/12/10 04:11:31;;;;;;;3.85;3.00;;;;;;;17.51;43.74;99594.16;5035480;28;20033;-74
2021/12/10 04:13:57;;;;;;;6.82;2.92;;;;;;;17.48;43.93;99591.09;5039533;28;20040;-74
2021/12/10 04:16:25;;;;;;;4.90;2.88;;;;;;;17.52;43.72;99587.88;5038331;28;20036;-74
2021/12/10 04:18:53;;;;;;;5.63;3.40;;;;;;;17.49;43.87;99587.44;5039258;28;20109;-75
2021/12/10 04:21:20;;;;;;;3.97;2.97;;;;;;;17.45;43.76;99584.41;5040369;28;20072;-74
2021/12/10 04:23:47;;;;;;;6.05;3.10;;;;;;;17.50;43.65;99597.78;5039339;28;20044;-74
2021/12/10 04:26:17;;;;;;;4.45;2.90;;;;;;;17.66;43.41;99575.59;5039005;28;20461;-74
2021/12/10 04:28:43;;;;;;;5.30;3.00;;;;;;;17.71;43.04;99573.22;5039082;28;20041;-74
2021/12/10 04:31:09;;;;;;;4.90;2.88;;;;;;;17.84;43.01;99572.47;5036492;28;20045;-74
2021/12/10 04:33:35;;;;;;;3.13;2.75;;;;;;;18.00;42.52;99580.03;5033405;28;20034;-74
2021/12/10 04:36:01;;;;;;;6.55;3.20;;;;;;;18.11;42.39;99576.81;5041046;28;20403;-74
2021/12/10 04:38:29;;;;;;;4.50;2.80;;;;;;;18.17;42.38;99569.13;5037628;28;20045;-76
2021/12/10 04:40:59;;;;;;;5.05;2.83;;;;;;;18.33;42.24;99563.50;5039786;28;20111;-76
2021/12/10 04:43:26;;;;;;;4.55;3.05;;;;;;;18.46;41.97;99562.69;5039512;28;20467;-74
2021/12/10 04:45:54;;;;;;;4.90;2.78;;;;;;;18.58;41.70;99550.53;5040369;28;20393;-75
2021/12/10 04:48:20;;;;;;;5.60;2.95;;;;;;;18.68;41.57;99549.16;5035897;28;20029;-74
2021/12/10 04:50:46;;;;;;;3.45;2.70;;;;;;;18.78;41.81;99551.38;5039809;28;20037;-74
2021/12/10 04:53:12;;;;;;;3.75;2.92;;;;;;;18.84;41.82;99541.84;5038051;28;20095;-74
2021/12/10 04:55:39;;;;;;;2.88;2.58;;;;;;;18.91;41.74;99527.66;5035781;28;20021;-76
2021/12/10 04:58:05;;;;;;;3.83;2.72;;;;;;;18.99;41.70;99521.34;5037147;28;20037;-74
2021/12/10 05:00:35;;;;;;;3.58;2.70;;;;;;;19.06;41.59;99521.34;5039404;28;20036;-74
2021/12/10 05:03:02;;;;;;;4.28;2.80;;;;;;;19.14;41.40;99518.47;5036524;28;20129;-74
2021/12/10 05:05:28;;;;;;;6.47;3.22;;;;;;;19.14;41.43;99503.44;5038948;28;22520;-74
2021/12/10 05:07:55;;;;;;;3.63;2.72;;;;;;;19.18;41.46;99512.56;5049904;28;20133;-73
2021/12/10 05:10:21;;;;;;;5.20;2.83;;;;;;;19.25;41.43;99521.28;5034580;28;20041;-74
2021/12/10 05:12:47;;;;;;;4.28;3.08;;;;;;;19.31;41.24;99525.72;5038598;28;20034;-74
2021/12/10 05:15:24;;;;;;;5.13;3.03;;;;;;;19.35;41.33;99522.69;5038121;28;20491;-74
2021/12/10 05:17:52;;;;;;;4.65;2.90;;;;;;;19.33;41.22;99509.69;5037571;28;20060;-75
2021/12/10 05:20:35;;;;;;;3.17;2.88;;;;;;;19.41;41.16;99512.13;5037970;28;20048;-74
2021/12/10 05:23:01;;;;;;;4.60;3.00;;;;;;;19.44;41.17;99502.97;5034533;28;20056;-75
2021/12/10 05:25:30;;;;;;;3.95;2.60;;;;;;;19.46;41.22;99498.28;5032767;28;20038;-74
2021/12/10 05:27:57;;;;;;;5.28;3.20;;;;;;;19.43;41.10;99488.16;5039155;28;20505;-74
2021/12/10 05:30:27;;;;;;;3.33;2.60;;;;;;;19.48;41.16;99493.59;5038455;28;20041;-74
2021/12/10 05:32:53;;;;;;;4.20;2.97;;;;;;;19.51;41.19;99498.47;5039247;28;20483;-74
2021/12/10 05:35:18;;;;;;;6.72;3.15;;;;;;;19.51;41.15;99496.63;5041290;28;20067;-75
2021/12/10 05:37:44;;;;;;;3.75;2.53;;;;;;;19.48;40.86;99491.78;5041106;28;20124;-75
2021/12/10 05:40:13;;;;;;;3.50;2.78;;;;;;;19.55;40.93;99494.41;5039727;28;20033;-74
2021/12/10 05:42:40;;;;;;;5.30;3.30;;;;;;;19.58;40.84;99501.94;5040417;28;20487;-76
2021/12/10 05:45:06;;;;;;;5.05;2.90;;;;;;;19.55;40.91;99497.84;5035533;28;20052;-74
2021/12/10 05:47:32;;;;;;;3.58;2.83;;;;;;;19.57;40.91;99498.47;5033377;28;20044;-75
2021/12/10 05:49:57;;;;;;;4.53;2.83;;;;;;;19.55;40.98;99489.94;5038804;28;20045;-75
2021/12/10 05:52:23;;;;;;;4.28;3.22;;;;;;;19.60;40.87;99486.69;5037240;28;20040;-75
2021/12/10 05:54:50;;;;;;;4.38;2.67;;;;;;;19.64;40.75;99487.88;5037220;28;20073;-74
2021/12/10 05:57:16;;;;;;;3.60;2.85;;;;;;;19.68;40.73;99496.19;5035458;28;20059;-75
2021/12/10 05:59:42;;;;;;;4.28;2.90;;;;;;;19.64;40.83;99493.16;5039274;28;20048;-74
2021/12/10 06:02:08;;;;;;;4.30;2.90;;;;;;;19.69;40.81;99488.03;5038932;28;20041;-75
2021/12/10 06:04:34;;;;;;;3.70;2.90;;;;;;;19.70;40.78;99494.13;5040305;28;20048;-76
2021/12/10 06:07:01;;;;;;;4.32;2.90;;;;;;;19.72;40.64;99489.44;5036700;28;20048;-75
2021/12/10 06:09:26;;;;;;;3.95;2.75;;;;;;;19.60;40.65;99465.56;5041642;28;20060;-74
2021/12/10 06:11:52;;;;;;;3.72;3.03;;;;;;;19.71;40.74;99479.91;5038740;28;20052;-74
2021/12/10 06:14:18;;;;;;;4.53;2.75;;;;;;;19.74;40.64;99485.56;5044747;28;20470;-74
2021/12/10 06:16:44;;;;;;;4.53;2.80;;;;;;;19.77;40.60;99479.91;5036276;28;20037;-74
2021/12/10 06:19:09;;;;;;;3.75;3.13;;;;;;;19.77;40.62;99474.63;5035665;28;20036;-75
2021/12/10 06:21:37;;;;;;;5.07;3.38;;;;;;;19.78;40.60;99478.06;5036593;28;20235;-75
2021/12/10 06:24:04;;;;;;;3.22;2.65;;;;;;;19.83;40.59;99479.03;5038810;28;20044;-75
2021/12/10 06:26:30;;;;;;;4.90;2.97;;;;;;;19.83;40.34;99481.69;5036822;28;20045;-75
2021/12/10 06:28:56;;;;;;;4.07;2.97;;;;;;;19.80;40.56;99468.09;5035015;28;20086;-75
2021/12/10 06:31:23;;;;;;;4.28;2.60;;;;;;;19.83;40.74;99468.47;5035755;28;20066;-75
2021/12/10 06:33:49;;;;;;;3.25;2.47;;;;;;;19.84;40.61;99469.28;5031249;28;20044;-75
2021/12/10 06:36:17;;;;;;;4.43;2.70;;;;;;;19.79;40.47;99453.25;5036767;28;20051;-74
2021/12/10 06:38:43;;;;;;;4.45;2.80;;;;;;;19.86;40.56;99473.31;5035339;28;20589;-74
2021/12/10 06:41:10;;;;;;;3.58;2.60;;;;;;;19.83;40.67;99473.75;5038541;28;20474;-74
2021/12/10 06:43:36;;;;;;;3.53;2.55;;;;;;;19.80;40.59;99474.19;5039508;28;20560;-75
2021/12/10 06:46:05;;;;;;;3.78;3.05;;;;;;;19.82;40.62;99474.78;5036446;28;20029;-75
2021/12/10 06:48:30;;;;;;;2.90;2.60;;;;;;;19.84;40.65;99485.94;5035216;28;20124;-74
2021/12/10 06:51:00;;;;;;;4.00;2.80;;;;;;;19.84;40.54;99479.84;5032487;28;20120;-74
2021/12/10 06:53:26;;;;;;;;;;;;;;;19.81;40.42;99482.91;5034990;28;20037;-74
2021/12/10 06:55:52;;;;;;;4.20;2.70;;;;;;;19.77;40.47;99474.63;5033610;28;19927;-75
2021/12/10 06:58:19;;;;;;;3.20;2.60;;;;;;;19.73;40.46;99472.59;5050064;28;20120;-75
2021/12/10 07:00:49;;;;;;;4.32;2.88;;;;;;;19.77;40.53;99471.16;5036403;28;20090;-75
2021/12/10 07:03:18;;;;;;;3.67;3.00;;;;;;;19.59;40.43;99446.25;5037796;28;20139;-75
2021/12/10 07:05:45;;;;;;;3.97;2.83;;;;;;;19.77;40.50;99469.31;5039751;28;20403;-75
2021/12/10 07:08:10;;;;;;;5.00;2.85;;;;;;;19.67;40.63;99453.13;5040214;28;20395;-75
2021/12/10 07:10:37;;;;;;;3.15;2.50;;;;;;;19.79;40.53;99464.63;5039194;28;20090;-74
2021/12/10 07:13:06;;;;;;;2.95;2.55;;;;;;;19.81;40.45;99467.06;5044194;28;20467;-75
2021/12/10 07:15:33;;;;;;;3.50;2.75;;;;;;;19.81;40.46;99473.16;5053469;28;20047;-75
2021/12/10 07:17:59;;;;;;;2.80;2.58;;;;;;;19.82;40.45;99473.97;5038471;28;20101;-75
2021/12/10 07:20:25;;;;;;;4.70;2.90;;;;;;;19.82;40.44;99473.97;5039697;28;20041;-75
2021/12/10 07:22:51;;;;;;;3.45;2.70;;;;;;;19.85;40.50;99469.06;5039826;28;20029;-75
2021/12/10 07:25:18;;;;;;;3.63;2.78;;;;;;;19.84;40.51;99464.00;5038680;28;20088;-75
2021/12/10 07:27:44;;;;;;;2.78;2.20;;;;;;;19.88;40.34;99468.63;5023015;28;20037;-75
2021/12/10 07:30:10;;;;;;;2.83;2.50;;;;;;;19.86;40.41;99467.22;5040828;28;20513;-75
2021/12/10 07:32:36;;;;;;;4.18;2.60;;;;;;;19.89;40.54;99464.16;5041790;28;20449;-74
2021/12/10 07:35:04;;;;;;;4.13;2.80;;;;;;;19.90;40.40;99460.50;5037010;28;20033;-74
2021/12/10 07:37:30;;;;;;;3.10;2.50;;;;;;;19.94;40.26;99472.28;5041469;28;20724;-75
2021/12/10 07:39:56;;;;;;;2.67;2.42;;;;;;;19.98;40.41;99476.09;5039998;28;20045;-74
2021/12/10 07:42:21;;;;;;;2.72;2.13;;;;;;;19.94;40.39;99479.41;5037740;28;20043;-74
2021/12/10 07:44:47;;;;;;;3.13;2.53;;;;;;;19.98;40.28;99476.09;5041738;28;20044;-75
2021/12/10 07:47:14;;;;;;;3.60;2.42;;;;;;;19.98;40.16;99476.09;5041736;28;20040;-75
2021/12/10 07:49:41;;;;;;;3.75;2.38;;;;;;;19.98;40.26;99481.41;5058621;28;20045;-74
2021/12/10 07:52:15;;;;;;;2.60;2.30;;;;;;;19.99;40.30;99490.13;5043793;28;20044;-74
2021/12/10 07:54:46;;;;;;;3.05;2.67;;;;;;;19.94;40.24;99485.50;5043296;28;20075;-74
2021/12/10 07:57:13;;;;;;;3.90;2.67;;;;;;;19.97;40.26;99486.91;5042823;28;20553;-76
2021/12/10 07:59:39;;;;;;;2.55;2.35;;;;;;;19.96;40.22;99486.09;5043156;28;20812;-76
2021/12/10 08:02:05;;;;;;;3.40;2.50;;;;;;;19.93;40.16;99486.50;5042288;28;20051;-76
2021/12/10 08:04:31;;;;;;;3.42;2.55;;;;;;;19.86;40.19;99486.53;5043238;28;20049;-75
2021/12/10 08:06:57;;;;;;;2.33;2.13;;;;;;;19.85;40.29;99484.91;5042009;28;20040;-75
2021/12/10 08:09:22;;;;;;;2.58;2.38;;;;;;;19.82;40.18;99485.34;5041246;28;20134;-76
2021/12/10 08:11:48;;;;;;;3.30;2.40;;;;;;;19.84;40.46;99479.84;5044962;28;20036;-75
2021/12/10 08:14:13;;;;;;;3.58;2.20;;;;;;;19.88;40.29;99486.31;5043080;28;20111;-75
2021/12/10 08:16:39;;;;;;;2.80;2.08;;;;;;;19.92;40.08;99487.50;5042111;28;20048;-73
2021/12/10 08:19:07;;;;;;;2.35;2.15;;;;;;;19.94;40.12;99490.78;5054314;28;20653;-74
2021/12/10 08:21:33;;;;;;;3.67;2.47;;;;;;;19.96;39.87;99482.63;5042903;28;20041;-75
2021/12/10 08:23:59;;;;;;;4.32;2.28;;;;;;;19.97;39.97;99487.69;5042121;28;20028;-75
2021/12/10 08:26:25;;;;;;;3.13;2.20;;;;;;;19.99;40.08;99476.91;5042916;28;20773;-74
2021/12/10 08:28:52;;;;;;;3.33;2.40;;;;;;;20.00;40.13;99479.34;5039831;28;20144;-69
2021/12/10 08:31:18;;;;;;;2.38;2.03;;;;;;;20.00;40.13;99479.34;5039706;28;20041;-72
2021/12/10 08:33:48;;;;;;;2.65;2.05;;;;;;;20.04;40.07;99482.38;5037833;28;20037;-73
2021/12/10 08:36:17;;;;;;;3.50;2.58;;;;;;;20.05;39.94;99483.97;5039951;28;20040;-72
2021/12/10 08:38:43;;;;;;;3.00;2.40;;;;;;;20.05;40.00;99490.06;5038240;28;20634;-71
2021/12/10 08:41:16;;;;;;;3.15;2.50;;;;;;;20.05;40.04;99482.16;5052077;28;20562;-71
2021/12/10 08:43:43;;;;;;;3.03;2.17;;;;;;;20.07;40.13;99489.88;5033689;28;20037;-71
2021/12/10 08:46:11;;;;;;;3.17;2.13;;;;;;;20.08;39.98;99487.00;5054497;28;20517;-71
2021/12/10 08:48:37;;;;;;;3.70;2.33;;;;;;;20.09;39.90;99485.16;5041618;28;20045;-70
2021/12/10 08:51:20;;;;;;;2.55;2.30;;;;;;;20.04;40.02;99483.19;5038372;28;20747;-70
2021/12/10 08:53:46;;;;;;;5.65;2.53;;;;;;;20.02;39.88;99482.59;5038244;28;20839;-70
2021/12/10 08:56:12;;;;;;;5.45;2.35;;;;;;;19.99;39.94;99474.28;5038376;28;20049;-71
2021/12/10 08:58:37;;;;;;;2.40;2.20;;;;;;;20.01;39.93;99480.97;5041297;28;20041;-70
2021/12/10 09:01:24;;;;;;;3.70;2.20;;;;;;;20.04;39.85;99491.09;5042630;28;20048;-71
2021/12/10 09:03:54;;;;;;;3.40;2.60;;;;;;;20.05;39.93;99491.91;5036884;28;20086;-71
2021/12/10 09:06:23;;;;;;;4.85;2.42;;;;;;;20.03;39.75;99484.19;5031790;28;20427;-70
2021/12/10 09:08:50;;;;;;;2.30;2.10;;;;;;;20.06;39.86;99494.34;5032485;28;20522;-71
2021/12/10 09:11:16;;;;;;;2.50;2.22;;;;;;;20.11;39.88;99502.47;5032152;28;20106;-71
2021/12/10 09:13:42;;;;;;;2.70;2.28;;;;;;;20.14;39.66;99498.56;5037182;28;20033;-70
2021/12/10 09:16:17;;;;;;;4.88;2.53;;;;;;;20.12;39.77;99497.97;5036664;28;20420;-71
2021/12/10 09:18:43;;;;;;;7.75;2.60;;;;;;;20.01;39.48;99473.03;5035935;28;20463;-70
2021/12/10 09:21:09;;;;;;;5.30;2.42;;;;;;;20.19;39.57;99502.19;5037529;28;20199;-71
2021/12/10 09:23:36;;;;;;;5.10;2.78;;;;;;;20.23;39.56;99497.28;5037778;28;20614;-72
2021/12/10 09:26:08;;;;;;;3.30;2.20;;;;;;;20.22;39.49;99495.66;5049459;28;20581;-71
2021/12/10 09:28:35;;;;;;;4.22;2.53;;;;;;;20.25;39.24;99499.72;5035556;28;20403;-72
2021/12/10 09:31:01;;;;;;;4.78;2.67;;;;;;;20.27;39.12;99498.47;5036461;28;20482;-70
2021/12/10 09:33:27;;;;;;;4.47;2.08;;;;;;;20.26;38.98;99491.56;5038299;28;20094;-70
2021/12/10 09:35:54;;;;;;;3.10;2.50;;;;;;;20.27;38.79;99495.00;5033087;28;20037;-71
2021/12/10 09:38:21;;;;;;;5.03;2.65;;;;;;;20.28;38.83;99496.63;5030983;28;20077;-70
2021/12/10 09:40:52;;;;;;;4.40;2.33;;;;;;;20.20;38.92;99487.94;5036006;28;20090;-69
2021/12/10 09:43:19;;;;;;;5.18;2.55;;;;;;;20.22;38.84;99499.13;5038106;28;20688;-69
2021/12/10 09:45:46;;;;;;;3.88;1.92;;;;;;;20.18;38.77;99497.13;5032077;28;20118;-72
2021/12/10 09:48:15;;;;;;;4.50;2.47;;;;;;;20.01;38.60;99469.59;5033335;28;20386;-71
2021/12/10 09:50:46;;;;;;;5.03;2.58;;;;;;;20.13;38.50;99495.13;5034383;28;20048;-72
2021/12/10 09:53:13;;;;;;;4.28;2.22;;;;;;;20.11;38.51;99496.38;5036210;28;20025;-71
2021/12/10 09:55:41;;;;;;;2.97;2.10;;;;;;;20.08;38.30;99489.66;5046374;28;20095;-69
2021/12/10 09:58:07;;;;;;;5.50;2.30;;;;;;;20.03;38.28;99488.69;5027045;28;20041;-69
2021/12/10 10:00:35;;;;;;;4.80;2.85;;;;;;;19.96;38.17;99488.72;5030121;28;20041;-69
2021/12/10 10:03:02;;;;;;;4.07;2.20;;;;;;;19.92;38.25;99483.03;5031696;28;20033;-70
2021/12/10 10:05:32;;;;;;;3.78;2.20;;;;;;;19.93;37.96;99483.88;5031912;28;20187;-68
2021/12/10 10:08:03;;;;;;;4.80;2.33;;;;;;;19.91;37.72;99485.88;5034008;28;20032;-68
2021/12/10 10:10:30;;;;;;;4.68;2.63;;;;;;;19.87;37.97;99482.06;5039584;28;20079;-69
2021/12/10 10:12:57;;;;;;;3.08;2.28;;;;;;;19.91;38.35;99477.97;5039443;28;20063;-68
2021/12/10 10:15:28;;;;;;;5.88;2.60;;;;;;;19.99;38.58;99472.44;5038288;28;20044;-67
2021/12/10 10:17:56;;;;;;;5.15;2.55;;;;;;;20.17;38.87;99471.72;5002350;28;20156;-68
2021/12/10 10:20:23;;;;;;;3.80;2.05;;;;;;;20.25;38.86;99471.44;5027939;28;20249;-67
2021/12/10 10:22:50;;;;;;;4.50;2.30;;;;;;;20.33;38.96;99486.25;5025142;28;20264;-68
2021/12/10 10:25:20;;;;;;;5.05;2.40;;;;;;;20.35;38.90;99466.50;5045104;28;20033;-68
2021/12/10 10:27:46;;;;;;;3.05;2.10;;;;;;;20.42;39.18;99485.78;5031025;28;20743;-67
2021/12/10 10:30:15;;;;;;;3.50;2.05;;;;;;;20.45;39.05;99480.06;5032300;28;20029;-68
2021/12/10 10:32:45;;;;;;;4.50;2.20;;;;;;;20.51;39.10;99479.22;5002052;28;20062;-69
2021/12/10 10:35:17;;;;;;;;;;;;;;;20.64;38.98;99469.53;5017982;28;20132;-66
2021/12/10 10:37:45;;;;;;;3.80;2.40;;;;;;;20.70;38.77;99464.19;5019533;28;20336;-66
2021/12/10 10:40:15;;;;;;;4.60;2.00;;;;;;;20.77;38.95;99470.22;5003768;28;20025;-67
2021/12/10 10:42:41;;;;;;;2.70;2.05;;;;;;;20.83;38.91;99468.56;5032861;28;20565;-67
2021/12/10 10:45:11;;;;;;;2.65;1.90;;;;;;;20.86;38.91;99465.47;5015439;28;20060;-68
2021/12/10 10:47:37;;;;;;;2.05;1.70;;;;;;;20.92;38.76;99461.94;5033103;28;20044;-68
2021/12/10 10:50:13;;;;;;;2.42;1.90;;;;;;;20.90;38.98;99458.69;4989981;28;20045;-68
2021/12/10 10:52:44;;;;;;;2.55;2.17;;;;;;;20.94;38.96;99462.50;5033313;28;20037;-68
2021/12/10 10:55:12;;;;;;;2.20;1.83;;;;;;;20.95;38.97;99464.13;5004683;28;20067;-67
2021/12/10 10:57:46;;;;;;;2.63;2.05;;;;;;;20.95;39.25;99461.47;5035722;28;20513;-67
2021/12/10 11:00:44;;;;;;;2.55;1.75;;;;;;;20.98;39.05;99463.69;5007335;28;20036;-67
2021/12/10 11:03:13;;;;;;;2.63;1.80;;;;;;;20.97;39.28;99472.66;5034329;28;20049;-68
2021/12/10 11:05:58;;;;;;;2.25;1.73;;;;;;;21.00;39.16;99474.06;5001422;28;20103;-68
2021/12/10 11:08:32;;;;;;;1.95;1.70;;;;;;;21.01;39.16;99473.06;5025203;28;20051;-67
2021/12/10 11:11:16;;;;;;;5.00;2.17;;;;;;;21.04;39.22;99478.72;5032169;28;20033;-66
2021/12/10 11:13:44;;;;;;;2.22;1.80;;;;;;;21.04;39.14;99476.06;5000086;28;20029;-66
2021/12/10 11:16:14;;;;;;;2.78;1.92;;;;;;;21.05;39.34;99469.72;5031863;28;20029;-66
2021/12/10 11:18:53;;;;;;;3.25;1.95;;;;;;;20.99;39.12;99457.38;5002409;28;20045;-66
2021/12/10 11:21:36;;;;;;;2.33;1.88;;;;;;;21.06;39.18;99465.25;5031857;28;20029;-67
2021/12/10 11:24:12;;;;;;;4.03;1.80;;;;;;;21.00;39.48;99461.63;5022612;28;20067;-67
2021/12/10 11:27:04;;;;;;;2.10;1.70;;;;;;;21.05;39.45;99468.94;5031720;28;20037;-67
2021/12/10 11:29:39;;;;;;;3.03;1.63;;;;;;;21.06;39.30;99474.00;5001127;28;20041;-67
2021/12/10 11:32:12;;;;;;;3.88;1.90;;;;;;;21.04;39.58;99476.06;5030709;28;20274;-68
2021/12/10 11:34:50;;;;;;;2.95;1.83;;;;;;;21.09;39.20;99473.56;5003542;28;20467;-67
2021/12/10 11:37:36;;;;;;;5.18;2.00;;;;;;;20.94;37.90;99483.69;5030495;28;20118;-66
2021/12/10 11:40:03;;;;;;;4.70;2.58;;;;;;;20.67;37.52;99482.34;5022842;28;20063;-66
2021/12/10 11:42:45;;;;;;;4.05;2.35;;;;;;;20.50;37.16;99480.22;5037942;28;20126;-66
2021/12/10 11:45:41;;;;;;;3.97;2.70;;;;;;;20.42;36.83;99474.38;5005170;28;20577;-66
2021/12/10 11:48:13;;;;;;;4.43;2.65;;;;;;;20.32;36.62;99474.06;5036146;28;20195;-66